マカオ の空港の天気 - METARとTAF

マカオ国際空港 ( VMMC / MFM ) - マカオ タイパ島
飛行場実況気象(Metar)
観測時間06/16 16:30 CST (06/16 08:30 UTC)
風向・風速東 8m/s
視程10km以上
天気現象
少しの雲 雲底高度 760m
気温29℃
湿度79%
気圧1004hPa
METARVMMC 160830Z 09015KT 9999 FEW025 29/25 Q1004 NOSIG
過去の天気等 Google飛行場航空写真 Wunderground天気予報

過去48時間のMETAR

飛行場予報(TAF)
発表時間: 6/16 13:00 CST (6/16 05:00 UTC)
予報対象時間: 16日14時 CST ~ 17日20時 CST
風向・風速東 8m/s
視程10km以上
少しの雲 雲底高度 610m
16日14時 CST ~ 16日20時 CST に一時的に
風向・風速東南東 9m/s 瞬間風速 14m/s
17日4時 CST ~ 17日14時 CST に一時的に
視程3500m
天気現象しゅう雨
少しの積乱雲 雲底高度 300m
全天の4割程度の雲 雲底高度 610m
TAF VMMC 160500Z 1606/1712 10015KT 9999 FEW020
TEMPO 1606/1612 12018G28KT
TEMPO 1620/1706 3500 SHRA FEW010CB SCT020